Time;durP1;ratioP1;P1;durP2;ratioP2;P2;SDS_P1;SDS_P2;PMS_P1;PMS_P2;Temp;Humidity;BMP_temperature;BMP_pressure;BME280_temperature;BME280_humidity;BME280_pressure;Samples;Min_cycle;Max_cycle;Signal;HPM_P1;HPM_P2
2021/09/15 00:01:30;;;;;;;11.00;6.50;;;18.30;81.00;;;;;;4932852;29;20103;-74
2021/09/15 00:03:56;;;;;;;8.43;6.55;;;18.30;81.40;;;;;;4927703;29;20042;-74
2021/09/15 00:06:22;;;;;;;7.30;6.55;;;18.20;81.40;;;;;;4932584;29;20460;-74
2021/09/15 00:08:47;;;;;;;7.65;6.53;;;18.20;81.60;;;;;;4930491;29;20047;-74
2021/09/15 00:11:16;;;;;;;7.50;6.32;;;18.20;81.70;;;;;;4930768;29;20067;-74
2021/09/15 00:13:42;;;;;;;7.50;6.70;;;18.10;81.90;;;;;;4923308;29;20148;-74
2021/09/15 00:16:08;;;;;;;8.85;5.97;;;18.10;82.30;;;;;;4936872;28;20063;-74
2021/09/15 00:18:34;;;;;;;9.38;6.82;;;18.00;82.80;;;;;;4935001;29;20036;-74
2021/09/15 00:20:59;;;;;;;8.27;6.22;;;18.00;82.80;;;;;;4935225;29;20043;-74
2021/09/15 00:23:25;;;;;;;6.95;6.25;;;18.00;83.10;;;;;;4941129;28;20074;-74
2021/09/15 00:25:51;;;;;;;7.53;6.80;;;17.90;83.10;;;;;;4936108;28;20127;-74
2021/09/15 00:28:16;;;;;;;10.65;6.80;;;17.90;83.00;;;;;;4941663;29;20050;-74
2021/09/15 00:30:42;;;;;;;7.05;6.22;;;17.90;83.20;;;;;;4934732;29;20119;-74
2021/09/15 00:33:08;;;;;;;8.32;6.68;;;17.80;83.50;;;;;;4934650;29;20035;-74
2021/09/15 00:35:33;;;;;;;7.75;6.78;;;17.80;84.00;;;;;;4942628;28;20842;-74
2021/09/15 00:37:59;;;;;;;8.43;6.93;;;17.60;83.90;;;;;;4933561;29;20661;-74
2021/09/15 00:40:25;;;;;;;8.73;6.93;;;17.70;84.20;;;;;;4935989;29;20484;-74
2021/09/15 00:42:50;;;;;;;10.00;7.43;;;17.50;84.10;;;;;;4933959;29;20749;-74
2021/09/15 00:45:16;;;;;;;7.95;6.85;;;17.60;84.50;;;;;;4936531;28;20141;-74
2021/09/15 00:47:43;;;;;;;8.45;7.47;;;17.60;84.70;;;;;;4930883;29;20085;-74
2021/09/15 00:50:12;;;;;;;8.80;6.20;;;17.60;84.80;;;;;;4934487;29;20150;-74
2021/09/15 00:52:38;;;;;;;8.57;6.80;;;17.60;84.80;;;;;;4931532;29;20059;-74
2021/09/15 00:55:06;;;;;;;8.25;7.45;;;17.60;84.60;;;;;;4946260;28;20115;-74
2021/09/15 00:57:32;;;;;;;8.70;7.35;;;17.60;84.40;;;;;;4932618;29;20066;-74
2021/09/15 00:59:59;;;;;;;8.93;7.40;;;17.60;84.60;;;;;;4929758;29;20554;-74
2021/09/15 01:02:27;;;;;;;13.13;8.07;;;17.50;84.70;;;;;;4934285;29;20071;-74
2021/09/15 01:04:54;;;;;;;11.45;7.40;;;17.50;84.80;;;;;;4931447;28;20559;-74
2021/09/15 01:07:22;;;;;;;9.43;7.22;;;17.40;85.10;;;;;;4934419;29;20035;-74
2021/09/15 01:09:48;;;;;;;8.48;7.55;;;17.30;85.00;;;;;;4933964;28;20035;-74
2021/09/15 01:12:20;;;;;;;9.10;7.05;;;17.30;86.40;;;;;;4950510;28;20032;-74
2021/09/15 01:15:06;;;;;;;11.07;7.50;;;17.30;85.90;;;;;;4932519;29;20844;-74
2021/09/15 01:17:48;;;;;;;7.82;6.53;;;17.40;86.00;;;;;;4940817;28;20146;-74
2021/09/15 01:20:43;;;;;;;10.10;8.10;;;17.40;85.70;;;;;;4935455;28;20093;-74
2021/09/15 01:23:28;;;;;;;11.27;7.70;;;17.40;85.50;;;;;;4931664;28;20050;-74
2021/09/15 01:26:35;;;;;;;9.38;8.07;;;17.50;85.50;;;;;;4919201;29;20082;-74
2021/09/15 01:29:26;;;;;;;8.10;6.97;;;17.50;85.40;;;;;;4935192;29;20723;-74
2021/09/15 01:32:11;;;;;;;10.20;7.97;;;17.50;85.40;;;;;;4940655;29;20031;-74
2021/09/15 01:34:40;;;;;;;8.98;7.47;;;17.50;85.10;;;;;;4931890;28;20483;-74
2021/09/15 01:37:12;;;;;;;8.40;7.18;;;17.50;85.10;;;;;;4948261;28;20036;-74
2021/09/15 01:39:49;;;;;;;11.02;8.25;;;17.60;85.60;;;;;;4931460;29;20077;-74
2021/09/15 01:42:15;;;;;;;9.23;7.30;;;17.60;85.20;;;;;;4948824;28;20728;-74
2021/09/15 01:44:43;;;;;;;7.90;7.10;;;17.60;85.20;;;;;;4928492;29;20059;-74
2021/09/15 01:47:16;;;;;;;13.40;8.50;;;17.60;85.20;;;;;;4935421;29;20039;-74
2021/09/15 01:49:42;;;;;;;12.10;7.60;;;17.70;84.80;;;;;;4934627;29;20076;-74
2021/09/15 01:52:10;;;;;;;10.05;7.25;;;17.70;84.70;;;;;;4934166;29;20038;-74
2021/09/15 01:54:36;;;;;;;8.10;7.18;;;17.70;84.80;;;;;;4940575;28;20067;-74
2021/09/15 01:57:03;;;;;;;9.52;7.28;;;17.70;84.80;;;;;;4940857;28;20142;-74
2021/09/15 02:00:02;;;;;;;10.30;7.60;;;17.70;84.60;;;;;;4925198;28;20059;-74
2021/09/15 02:03:03;;;;;;;8.20;7.32;;;17.70;84.50;;;;;;4938292;29;20070;-74
2021/09/15 02:05:40;;;;;;;9.63;8.35;;;17.70;84.70;;;;;;4933553;28;20043;-74
2021/09/15 02:08:28;;;;;;;9.70;7.78;;;17.70;84.60;;;;;;4927789;28;20031;-74
2021/09/15 02:11:15;;;;;;;9.70;8.57;;;17.70;84.70;;;;;;4935314;28;20163;-74
2021/09/15 02:13:41;;;;;;;9.20;8.30;;;17.70;85.10;;;;;;4926836;28;20040;-74
2021/09/15 02:16:07;;;;;;;12.57;8.10;;;17.70;84.90;;;;;;4929255;29;20032;-74
2021/09/15 02:18:33;;;;;;;9.82;7.70;;;17.70;84.90;;;;;;4932635;29;20066;-74
2021/09/15 02:21:27;;;;;;;11.00;8.63;;;17.70;84.90;;;;;;4932226;29;20443;-74
2021/09/15 02:24:15;;;;;;;9.88;8.30;;;17.80;85.00;;;;;;4926999;29;20039;-74
2021/09/15 02:27:01;;;;;;;8.95;7.60;;;17.80;85.00;;;;;;4927376;29;20055;-74
2021/09/15 02:29:29;;;;;;;9.30;8.13;;;17.80;85.00;;;;;;4931477;29;20877;-74
2021/09/15 02:32:08;;;;;;;9.18;8.00;;;17.80;85.10;;;;;;4939080;29;20036;-74
2021/09/15 02:34:56;;;;;;;11.70;8.52;;;17.80;85.10;;;;;;4934027;28;20038;-74
2021/09/15 02:37:36;;;;;;;10.30;7.93;;;17.80;85.00;;;;;;4928478;28;20038;-74
2021/09/15 02:40:12;;;;;;;13.38;8.05;;;17.80;85.10;;;;;;4926222;29;20441;-74
2021/09/15 02:42:58;;;;;;;12.48;8.85;;;17.80;85.00;;;;;;4931125;28;20051;-74
2021/09/15 02:45:32;;;;;;;12.40;8.95;;;17.80;85.00;;;;;;4925615;29;21154;-74
2021/09/15 02:48:13;;;;;;;11.50;8.88;;;17.80;84.90;;;;;;4934928;28;20171;-74
2021/09/15 02:50:57;;;;;;;10.68;8.60;;;17.80;85.20;;;;;;4931668;29;20094;-74
2021/09/15 02:53:32;;;;;;;10.87;9.60;;;17.80;85.60;;;;;;4936158;28;20027;-74
2021/09/15 02:56:10;;;;;;;11.48;8.73;;;17.80;85.40;;;;;;4932650;28;20291;-74
2021/09/15 02:58:54;;;;;;;10.32;9.00;;;17.70;85.60;;;;;;4929012;29;20143;-74
2021/09/15 03:01:34;;;;;;;12.02;9.40;;;17.70;85.70;;;;;;4931400;29;20038;-74
2021/09/15 03:04:29;;;;;;;9.65;8.52;;;17.70;85.80;;;;;;4938308;28;20040;-74
2021/09/15 03:07:03;;;;;;;9.70;8.68;;;17.80;85.90;;;;;;4929437;29;20125;-74
2021/09/15 03:09:34;;;;;;;10.40;8.75;;;17.80;85.80;;;;;;4948444;28;20031;-74
2021/09/15 03:12:00;;;;;;;12.02;8.82;;;17.80;85.70;;;;;;4932801;29;20032;-74
2021/09/15 03:14:27;;;;;;;12.70;9.05;;;17.80;85.50;;;;;;4926736;28;20032;-74
2021/09/15 03:16:54;;;;;;;13.23;9.00;;;17.80;85.70;;;;;;4925968;29;20047;-74
2021/09/15 03:19:21;;;;;;;12.70;9.10;;;17.80;85.70;;;;;;4928127;29;20055;-74
2021/09/15 03:21:48;;;;;;;13.70;9.27;;;17.80;86.00;;;;;;4936946;29;20043;-74
2021/09/15 03:24:14;;;;;;;13.35;8.82;;;17.80;86.60;;;;;;4931073;29;20035;-74
2021/09/15 03:26:42;;;;;;;13.57;9.63;;;17.80;85.80;;;;;;4927037;29;20042;-74
2021/09/15 03:29:08;;;;;;;13.15;9.52;;;17.70;85.80;;;;;;4939015;29;20559;-74
2021/09/15 03:31:34;;;;;;;12.38;9.98;;;17.80;86.10;;;;;;4926340;29;20497;-74
2021/09/15 03:34:00;;;;;;;10.98;9.88;;;17.70;85.70;;;;;;4931005;28;20114;-74
2021/09/15 03:36:26;;;;;;;11.52;9.32;;;17.70;86.00;;;;;;4928584;29;20739;-74
2021/09/15 03:38:52;;;;;;;12.63;9.55;;;17.70;86.10;;;;;;4931471;28;20130;-74
2021/09/15 03:41:18;;;;;;;12.73;10.05;;;17.70;86.00;;;;;;4938962;28;20792;-73
2021/09/15 03:43:45;;;;;;;10.63;9.43;;;17.80;85.80;;;;;;4926505;29;20704;-74
2021/09/15 03:46:11;;;;;;;12.18;9.63;;;17.80;86.00;;;;;;4916983;29;20131;-74
2021/09/15 03:48:38;;;;;;;11.23;8.88;;;17.80;86.00;;;;;;4950505;28;20035;-74
2021/09/15 03:51:05;;;;;;;10.63;9.52;;;17.80;86.20;;;;;;4928096;28;20440;-74
2021/09/15 03:53:32;;;;;;;11.52;9.57;;;17.80;86.20;;;;;;4943232;28;20058;-74
2021/09/15 03:55:58;;;;;;;12.35;9.02;;;17.80;86.70;;;;;;4944689;28;20105;-74
2021/09/15 03:58:25;;;;;;;12.85;9.88;;;17.80;86.00;;;;;;4940551;28;20027;-74
2021/09/15 04:00:50;;;;;;;10.70;9.45;;;17.80;86.70;;;;;;4937949;28;20128;-74
2021/09/15 04:03:17;;;;;;;12.25;9.70;;;17.80;86.10;;;;;;4942791;28;20034;-74
2021/09/15 04:05:44;;;;;;;13.82;10.32;;;17.80;86.10;;;;;;4941754;28;20028;-74
2021/09/15 04:08:12;;;;;;;12.20;10.13;;;17.80;86.10;;;;;;4936618;28;20074;-74
2021/09/15 04:10:38;;;;;;;13.43;10.23;;;17.90;86.20;;;;;;4936855;28;20106;-74
2021/09/15 04:13:07;;;;;;;10.85;9.68;;;17.90;86.40;;;;;;4935920;28;20483;-74
2021/09/15 04:15:35;;;;;;;10.50;9.38;;;17.90;86.50;;;;;;4940784;28;20778;-74
2021/09/15 04:18:01;;;;;;;11.02;9.57;;;17.90;86.40;;;;;;4938025;28;20122;-74
2021/09/15 04:20:27;;;;;;;11.73;9.43;;;18.00;86.40;;;;;;4956967;28;20031;-74
2021/09/15 04:22:56;;;;;;;12.85;9.45;;;18.00;86.20;;;;;;4933689;28;20143;-74
2021/09/15 04:31:38;;;;;;;11.60;9.60;;;18.10;86.00;;;;;;4935916;28;20078;-71
2021/09/15 04:33:58;;;;;;;10.10;9.10;;;18.10;85.90;;;;;;4936375;28;20047;-74
2021/09/15 04:36:28;;;;;;;12.60;10.63;;;18.00;86.00;;;;;;4945119;28;20043;-74
2021/09/15 04:38:56;;;;;;;11.48;9.70;;;18.10;86.00;;;;;;4933660;29;20039;-74
2021/09/15 04:41:23;;;;;;;12.05;9.48;;;18.10;85.90;;;;;;4939075;28;20470;-74
2021/09/15 04:43:49;;;;;;;11.18;9.27;;;18.10;85.90;;;;;;4941443;28;20054;-74
2021/09/15 04:46:17;;;;;;;13.30;10.02;;;18.10;85.60;;;;;;4934302;29;20043;-74
2021/09/15 04:48:43;;;;;;;11.65;10.02;;;18.10;85.50;;;;;;4929442;29;20036;-74
2021/09/15 04:51:09;;;;;;;10.70;9.60;;;18.10;85.30;;;;;;4941867;28;20110;-72
2021/09/15 04:53:35;;;;;;;12.20;9.85;;;18.00;85.70;;;;;;4942587;28;20060;-73
2021/09/15 04:56:03;;;;;;;12.02;9.27;;;18.10;86.00;;;;;;4925010;28;20031;-73
2021/09/15 04:58:30;;;;;;;10.07;9.00;;;18.10;86.00;;;;;;4931502;28;20780;-72
2021/09/15 05:00:56;;;;;;;12.18;10.20;;;18.10;85.80;;;;;;4930684;28;20032;-73
2021/09/15 05:03:23;;;;;;;12.57;9.82;;;18.10;86.00;;;;;;4946557;28;20557;-73
2021/09/15 05:05:49;;;;;;;9.50;8.35;;;18.10;86.30;;;;;;4945874;28;20031;-73
2021/09/15 05:08:19;;;;;;;11.57;9.73;;;18.10;86.30;;;;;;4949467;28;20039;-73
2021/09/15 05:10:46;;;;;;;12.32;10.02;;;18.10;85.70;;;;;;4933539;28;20032;-69
2021/09/15 05:13:13;;;;;;;11.52;9.65;;;18.10;85.80;;;;;;4937074;29;20035;-72
2021/09/15 05:15:42;;;;;;;11.82;9.88;;;18.10;85.70;;;;;;4941415;28;20066;-73
2021/09/15 05:18:08;;;;;;;12.00;10.57;;;18.10;85.60;;;;;;4940494;28;20040;-68
2021/09/15 05:20:35;;;;;;;11.20;9.60;;;18.10;85.70;;;;;;4943115;28;20065;-65
2021/09/15 05:23:02;;;;;;;10.77;9.60;;;18.10;85.60;;;;;;4944459;28;20133;-68
2021/09/15 05:25:28;;;;;;;15.40;10.30;;;18.10;86.10;;;;;;4946654;28;20070;-68
2021/09/15 05:27:55;;;;;;;12.40;10.75;;;18.10;85.50;;;;;;4936704;28;20063;-68
2021/09/15 05:30:23;;;;;;;13.35;10.38;;;18.20;85.80;;;;;;4935563;28;20436;-68
2021/09/15 05:32:54;;;;;;;14.10;10.52;;;18.20;86.00;;;;;;4949213;28;20037;-70
2021/09/15 05:35:20;;;;;;;10.93;9.80;;;18.20;86.10;;;;;;4947163;28;20035;-68
2021/09/15 05:37:46;;;;;;;14.75;10.32;;;18.20;86.00;;;;;;4955670;28;20031;-67
2021/09/15 05:40:13;;;;;;;14.60;10.18;;;18.30;85.90;;;;;;4943648;28;20031;-67
2021/09/15 05:42:40;;;;;;;13.65;9.70;;;18.30;85.90;;;;;;4938534;28;20039;-68
2021/09/15 05:45:06;;;;;;;11.63;10.23;;;18.30;85.80;;;;;;4931947;29;20098;-68
2021/09/15 05:47:34;;;;;;;10.85;9.75;;;18.30;85.70;;;;;;4942105;28;20049;-67
2021/09/15 05:50:00;;;;;;;13.48;10.43;;;18.30;85.70;;;;;;4948956;28;20027;-68
2021/09/15 05:52:29;;;;;;;12.73;10.52;;;18.40;85.80;;;;;;4943718;28;20027;-68
2021/09/15 05:54:56;;;;;;;13.73;10.77;;;18.40;85.80;;;;;;4940989;28;20093;-68
2021/09/15 05:57:22;;;;;;;10.45;9.35;;;18.40;85.70;;;;;;4929259;28;20032;-68
2021/09/15 05:59:48;;;;;;;12.63;10.30;;;18.50;85.40;;;;;;4946023;28;20081;-68
2021/09/15 06:02:14;;;;;;;11.50;10.30;;;18.60;85.20;;;;;;4935966;28;20035;-68
2021/09/15 06:04:41;;;;;;;13.70;9.65;;;18.60;84.90;;;;;;4929937;28;20723;-68
2021/09/15 06:07:17;;;;;;;14.90;10.65;;;18.60;84.50;;;;;;4929845;28;20091;-67
2021/09/15 06:09:44;;;;;;;13.68;10.35;;;18.60;84.80;;;;;;4934038;28;20504;-67
2021/09/15 06:12:09;;;;;;;12.82;10.18;;;18.60;84.70;;;;;;4941993;28;20090;-67
2021/09/15 06:14:37;;;;;;;11.45;9.70;;;18.70;84.90;;;;;;4937504;28;20028;-66
2021/09/15 06:17:03;;;;;;;11.35;9.80;;;18.70;84.60;;;;;;4928056;28;20031;-65
2021/09/15 06:19:29;;;;;;;11.60;10.32;;;18.80;85.00;;;;;;4944050;28;20036;-65
2021/09/15 06:21:55;;;;;;;11.48;9.70;;;18.80;84.90;;;;;;4932827;29;20483;-67
2021/09/15 06:24:40;;;;;;;12.25;10.23;;;18.90;84.60;;;;;;4939042;28;20867;-66
2021/09/15 06:27:05;;;;;;;14.07;10.50;;;19.00;84.50;;;;;;4938876;28;20032;-67
2021/09/15 06:29:31;;;;;;;12.55;10.27;;;19.00;83.70;;;;;;4935633;28;20032;-67
2021/09/15 06:31:57;;;;;;;12.93;10.55;;;19.00;83.90;;;;;;4939053;28;20035;-67
2021/09/15 06:34:22;;;;;;;10.68;9.57;;;19.10;83.60;;;;;;4926413;28;20035;-67
2021/09/15 06:36:48;;;;;;;11.93;9.60;;;19.20;83.40;;;;;;4936471;28;20035;-64
2021/09/15 06:39:14;;;;;;;11.00;9.85;;;19.20;83.10;;;;;;4940787;28;20043;-67
2021/09/15 06:41:39;;;;;;;10.73;9.48;;;19.30;83.00;;;;;;4932690;29;20062;-67
2021/09/15 06:44:09;;;;;;;13.10;9.63;;;19.40;82.80;;;;;;4934821;28;20042;-67
2021/09/15 06:46:35;;;;;;;11.13;9.20;;;19.50;82.30;;;;;;4934477;28;20039;-67
2021/09/15 06:49:01;;;;;;;11.52;9.80;;;19.50;81.50;;;;;;4936254;28;20042;-65
2021/09/15 06:51:26;;;;;;;10.48;9.40;;;19.60;81.80;;;;;;4928857;29;20035;-65
2021/09/15 06:53:52;;;;;;;16.70;9.60;;;19.70;81.30;;;;;;4935660;28;20812;-67
2021/09/15 06:56:18;;;;;;;11.60;9.45;;;19.90;81.20;;;;;;4935266;28;20103;-70
2021/09/15 06:58:44;;;;;;;11.13;8.82;;;20.00;80.90;;;;;;4927071;28;20091;-65
2021/09/15 07:01:09;;;;;;;10.68;8.73;;;20.10;80.60;;;;;;4933527;28;20038;-66
2021/09/15 07:03:35;;;;;;;9.77;8.77;;;20.20;80.70;;;;;;4939732;28;20036;-66
2021/09/15 07:06:01;;;;;;;10.02;8.77;;;20.30;80.90;;;;;;4935277;28;20036;-65
2021/09/15 07:08:26;;;;;;;11.65;9.13;;;20.40;80.10;;;;;;4943272;28;20031;-66
2021/09/15 07:10:52;;;;;;;12.02;8.90;;;20.40;79.40;;;;;;4938554;28;20491;-66
2021/09/15 07:13:17;;;;;;;9.80;8.77;;;20.60;79.40;;;;;;4931676;29;20038;-67
2021/09/15 07:15:44;;;;;;;10.57;8.40;;;20.70;78.80;;;;;;4928620;29;20047;-66
2021/09/15 07:18:10;;;;;;;11.73;8.50;;;20.80;77.20;;;;;;4930269;29;20046;-66
2021/09/15 07:20:36;;;;;;;10.27;9.07;;;20.90;77.30;;;;;;4935702;28;20046;-66
2021/09/15 07:23:02;;;;;;;9.63;8.32;;;21.00;76.60;;;;;;4933466;28;20043;-67
2021/09/15 07:25:28;;;;;;;10.45;8.15;;;21.10;77.00;;;;;;4937334;28;20146;-66
2021/09/15 07:27:55;;;;;;;9.43;8.40;;;21.20;76.90;;;;;;4942748;28;20062;-66
2021/09/15 07:30:21;;;;;;;9.10;7.82;;;21.20;76.10;;;;;;4933686;29;20067;-66
2021/09/15 07:32:50;;;;;;;10.10;8.40;;;21.20;76.20;;;;;;4952604;28;20031;-66
2021/09/15 07:35:15;;;;;;;11.23;9.27;;;21.20;76.90;;;;;;4935413;28;20147;-65
2021/09/15 07:37:41;;;;;;;10.63;9.00;;;21.20;76.50;;;;;;4930620;28;20791;-65
2021/09/15 07:40:09;;;;;;;9.60;8.60;;;21.30;76.40;;;;;;4939748;28;20038;-65
2021/09/15 07:42:34;;;;;;;9.18;8.25;;;21.30;76.10;;;;;;4931902;28;20047;-65
2021/09/15 07:45:00;;;;;;;9.20;8.20;;;21.40;75.80;;;;;;4937596;28;20042;-65
2021/09/15 07:47:26;;;;;;;8.90;7.93;;;21.40;76.10;;;;;;4930774;29;20516;-66
2021/09/15 07:49:51;;;;;;;8.85;7.95;;;21.50;76.20;;;;;;4938781;28;20032;-65
2021/09/15 07:52:17;;;;;;;10.65;8.20;;;21.70;76.00;;;;;;4926803;29;20700;-64
2021/09/15 07:54:43;;;;;;;9.48;7.60;;;21.70;74.50;;;;;;4930328;28;20035;-66
2021/09/15 07:57:10;;;;;;;8.40;7.05;;;21.70;74.60;;;;;;4926497;29;20046;-65
2021/09/15 07:59:35;;;;;;;9.05;7.47;;;21.80;74.80;;;;;;4931528;29;20035;-65
2021/09/15 08:02:01;;;;;;;9.20;7.43;;;21.80;75.30;;;;;;4932645;28;20031;-66
2021/09/15 08:04:26;;;;;;;8.15;7.15;;;22.00;75.10;;;;;;4933599;28;20039;-66
2021/09/15 08:06:52;;;;;;;8.57;7.72;;;22.10;74.10;;;;;;4930897;29;20159;-66
2021/09/15 08:09:18;;;;;;;8.23;7.13;;;22.20;73.60;;;;;;4934366;28;20392;-66
2021/09/15 08:11:44;;;;;;;9.73;7.82;;;22.20;73.30;;;;;;4930648;28;20028;-66
2021/09/15 08:14:09;;;;;;;9.50;7.22;;;22.30;73.30;;;;;;4929847;29;20067;-62
2021/09/15 08:16:35;;;;;;;8.90;7.32;;;22.30;73.50;;;;;;4932394;28;20050;-65
2021/09/15 08:19:02;;;;;;;9.00;7.38;;;22.30;73.50;;;;;;4931473;28;20459;-69
2021/09/15 08:21:28;;;;;;;10.82;7.05;;;22.30;73.60;;;;;;4933803;28;20031;-68
2021/09/15 08:23:54;;;;;;;10.40;7.05;;;22.30;73.80;;;;;;4935315;28;20031;-68
2021/09/15 08:26:20;;;;;;;8.23;6.90;;;22.30;74.00;;;;;;4928765;28;20043;-76
2021/09/15 08:28:46;;;;;;;10.23;7.63;;;22.30;74.40;;;;;;4934068;28;20031;-68
2021/09/15 08:31:12;;;;;;;10.82;7.03;;;22.30;73.90;;;;;;4937621;28;20086;-68
2021/09/15 08:33:39;;;;;;;11.50;7.40;;;22.30;73.60;;;;;;4928705;28;20129;-68
2021/09/15 08:36:04;;;;;;;9.30;8.20;;;22.40;73.90;;;;;;4942822;28;20388;-68
2021/09/15 08:38:30;;;;;;;9.77;7.95;;;22.30;73.40;;;;;;4940699;28;20047;-68
2021/09/15 08:40:56;;;;;;;10.07;8.75;;;22.40;73.80;;;;;;4939859;28;20030;-68
2021/09/15 08:43:22;;;;;;;10.70;8.20;;;22.40;73.70;;;;;;4934830;28;20130;-68
2021/09/15 08:45:48;;;;;;;10.93;8.43;;;22.40;73.90;;;;;;4933734;28;20473;-67
2021/09/15 08:48:18;;;;;;;9.50;8.05;;;22.40;74.40;;;;;;4932731;28;20039;-67
2021/09/15 08:50:50;;;;;;;8.52;7.47;;;22.50;74.40;;;;;;4937140;28;20036;-71
2021/09/15 08:53:19;;;;;;;8.90;8.00;;;22.60;74.40;;;;;;4930200;28;20181;-68
2021/09/15 08:55:46;;;;;;;9.60;8.57;;;22.70;73.60;;;;;;4937234;28;20030;-67
2021/09/15 08:58:14;;;;;;;10.27;8.40;;;22.80;73.40;;;;;;4932765;28;20044;-67
2021/09/15 09:00:40;;;;;;;13.02;9.00;;;22.90;73.30;;;;;;4938735;28;20040;-68
2021/09/15 09:03:06;;;;;;;9.95;7.50;;;22.90;72.80;;;;;;4933474;29;20036;-68
2021/09/15 09:05:31;;;;;;;9.00;7.43;;;23.00;72.30;;;;;;4935501;28;20054;-68
2021/09/15 09:07:58;;;;;;;10.98;8.93;;;23.00;73.20;;;;;;4937256;28;20032;-68
2021/09/15 09:10:24;;;;;;;10.85;8.95;;;23.00;73.20;;;;;;4933293;29;20035;-68
2021/09/15 09:12:50;;;;;;;11.48;9.45;;;23.00;73.50;;;;;;4946784;28;21084;-68
2021/09/15 09:15:23;;;;;;;12.25;9.30;;;23.00;72.80;;;;;;4939061;28;20126;-68
2021/09/15 09:17:59;;;;;;;9.77;8.65;;;23.00;73.20;;;;;;4945032;28;20105;-68
2021/09/15 09:20:35;;;;;;;15.98;12.45;;;23.00;72.00;;;;;;4934593;28;20126;-68
2021/09/15 09:23:15;;;;;;;11.82;9.02;;;23.10;72.40;;;;;;4931525;29;20063;-68
2021/09/15 09:25:44;;;;;;;9.35;8.18;;;23.20;72.90;;;;;;4941728;28;20530;-68
2021/09/15 09:28:31;;;;;;;10.18;8.55;;;23.40;72.10;;;;;;4937502;28;20076;-68
2021/09/15 09:30:59;;;;;;;9.82;8.13;;;23.40;71.90;;;;;;4935072;28;20110;-71
2021/09/15 09:33:25;;;;;;;12.38;9.43;;;23.50;71.90;;;;;;4938416;28;20050;-69
2021/09/15 09:36:04;;;;;;;10.48;8.57;;;23.60;72.30;;;;;;4940261;28;20046;-68
2021/09/15 09:38:44;;;;;;;12.52;8.63;;;23.60;72.00;;;;;;4951081;28;20047;-70
2021/09/15 09:41:14;;;;;;;9.15;8.23;;;23.70;71.10;;;;;;4939176;28;20036;-70
2021/09/15 09:43:42;;;;;;;12.45;8.52;;;23.80;71.50;;;;;;4934427;28;20130;-70
2021/09/15 09:46:11;;;;;;;9.52;8.02;;;24.00;71.00;;;;;;4936542;28;20157;-70
2021/09/15 09:48:42;;;;;;;10.45;8.25;;;24.10;70.40;;;;;;4953014;28;20055;-69
2021/09/15 09:51:21;;;;;;;9.73;8.73;;;24.10;69.40;;;;;;4933240;29;20027;-70
2021/09/15 09:53:47;;;;;;;9.00;8.15;;;24.20;69.00;;;;;;4935276;28;20053;-70
2021/09/15 09:56:13;;;;;;;10.20;7.95;;;24.20;69.50;;;;;;4931318;28;20131;-70
2021/09/15 09:58:43;;;;;;;13.40;7.78;;;24.20;70.90;;;;;;4934604;28;20023;-69
2021/09/15 10:01:14;;;;;;;9.18;7.57;;;24.40;69.70;;;;;;4928339;28;20032;-69
2021/09/15 10:03:40;;;;;;;11.68;7.22;;;24.40;69.20;;;;;;4938824;28;20098;-69
2021/09/15 10:06:06;;;;;;;9.63;7.07;;;24.50;69.70;;;;;;4935634;28;20032;-69
2021/09/15 10:08:35;;;;;;;8.43;7.57;;;24.60;68.60;;;;;;4934437;29;20391;-69
2021/09/15 10:11:00;;;;;;;10.35;7.50;;;24.50;68.80;;;;;;4931482;29;20477;-69
2021/09/15 10:13:26;;;;;;;10.50;9.02;;;24.40;69.00;;;;;;4944540;28;20131;-69
2021/09/15 10:15:57;;;;;;;11.98;10.32;;;24.40;69.00;;;;;;4931075;29;20070;-70
2021/09/15 10:18:24;;;;;;;10.57;8.52;;;24.40;70.60;;;;;;4929170;28;20699;-69
2021/09/15 10:20:55;;;;;;;9.95;8.10;;;24.40;70.60;;;;;;4929263;28;20051;-69
2021/09/15 10:23:51;;;;;;;8.52;7.68;;;24.30;70.10;;;;;;4932742;28;20038;-70
2021/09/15 10:26:37;;;;;;;9.00;8.10;;;24.30;70.50;;;;;;4948094;28;20031;-70
2021/09/15 10:29:28;;;;;;;11.40;8.82;;;24.20;71.00;;;;;;4929910;29;20515;-70
2021/09/15 10:32:12;;;;;;;9.20;7.35;;;24.20;69.60;;;;;;4931381;28;20118;-71
2021/09/15 10:34:38;;;;;;;9.85;7.63;;;24.30;70.10;;;;;;4936748;28;20040;-70
2021/09/15 10:37:13;;;;;;;9.93;8.00;;;24.30;71.20;;;;;;4928219;29;20050;-71
2021/09/15 10:39:57;;;;;;;9.50;8.50;;;24.40;69.90;;;;;;4932519;28;20679;-70
2021/09/15 10:42:48;;;;;;;11.48;7.38;;;24.50;68.40;;;;;;4937009;28;20044;-70
2021/09/15 10:45:18;;;;;;;9.93;7.97;;;24.60;68.60;;;;;;4928604;28;20050;-70
2021/09/15 10:47:50;;;;;;;8.57;7.53;;;24.70;68.90;;;;;;4930311;29;20039;-70
2021/09/15 10:50:28;;;;;;;9.77;7.57;;;24.70;69.30;;;;;;4928330;29;20098;-70
2021/09/15 10:53:15;;;;;;;7.30;6.60;;;24.80;69.80;;;;;;4932230;28;20043;-71
2021/09/15 10:55:53;;;;;;;8.35;6.45;;;24.80;70.00;;;;;;4931999;28;20106;-71
2021/09/15 10:58:25;;;;;;;8.82;6.80;;;24.80;70.80;;;;;;4930356;29;20142;-71
2021/09/15 11:01:04;;;;;;;9.13;8.23;;;24.90;69.60;;;;;;4931313;29;20087;-70
2021/09/15 11:03:35;;;;;;;9.77;6.30;;;24.90;69.20;;;;;;4930561;28;20935;-70
2021/09/15 11:06:07;;;;;;;7.40;5.68;;;25.00;69.30;;;;;;4938621;28;20698;-70
2021/09/15 11:08:37;;;;;;;7.75;6.72;;;25.00;69.00;;;;;;4929680;28;20511;-70
2021/09/15 11:11:08;;;;;;;6.78;6.07;;;25.10;68.50;;;;;;4936964;28;20027;-70
2021/09/15 11:13:33;;;;;;;9.77;6.53;;;25.10;68.80;;;;;;4944044;28;20572;-75
2021/09/15 11:16:22;;;;;;;6.32;5.72;;;25.10;70.00;;;;;;4935179;28;20035;-75
2021/09/15 11:19:11;;;;;;;8.52;5.65;;;25.20;70.60;;;;;;4933648;28;20031;-75
2021/09/15 11:21:56;;;;;;;7.38;5.53;;;25.30;70.20;;;;;;4934473;28;20117;-75
2021/09/15 11:24:25;;;;;;;6.57;5.90;;;25.20;68.70;;;;;;4925007;29;20075;-74
2021/09/15 11:26:59;;;;;;;7.43;5.47;;;25.30;69.00;;;;;;4938090;28;20039;-75
2021/09/15 11:29:44;;;;;;;6.75;5.05;;;25.30;69.40;;;;;;4935910;28;20035;-72
2021/09/15 11:32:15;;;;;;;8.15;5.35;;;25.30;67.10;;;;;;4934889;28;20054;-68
2021/09/15 11:34:47;;;;;;;7.35;5.38;;;25.30;66.70;;;;;;4941001;28;20050;-70
2021/09/15 11:37:24;;;;;;;7.78;5.00;;;25.30;67.60;;;;;;4935075;28;20067;-72
2021/09/15 11:40:01;;;;;;;5.95;5.35;;;25.30;66.90;;;;;;4929181;29;20742;-72
2021/09/15 11:42:30;;;;;;;6.65;5.28;;;25.20;66.70;;;;;;4927936;28;20051;-72
2021/09/15 11:45:18;;;;;;;6.00;5.10;;;25.10;68.20;;;;;;4925295;29;20032;-70
2021/09/15 11:47:45;;;;;;;6.78;4.93;;;25.20;67.40;;;;;;4926602;28;20082;-74
2021/09/15 11:50:28;;;;;;;5.15;4.55;;;25.10;67.10;;;;;;4934833;29;20027;-74
2021/09/15 11:53:02;;;;;;;11.00;5.97;;;25.10;67.30;;;;;;4927300;29;20038;-72
2021/09/15 11:55:30;;;;;;;6.40;5.28;;;25.10;67.00;;;;;;4926025;29;20090;-73
2021/09/15 11:58:01;;;;;;;8.73;4.82;;;25.10;66.30;;;;;;4929915;29;20129;-73
2021/09/15 12:00:30;;;;;;;6.30;4.40;;;25.10;66.20;;;;;;4931189;28;20039;-71
2021/09/15 12:03:02;;;;;;;7.72;5.47;;;25.10;65.80;;;;;;4934873;29;20099;-72
2021/09/15 12:05:28;;;;;;;8.65;5.70;;;25.10;65.60;;;;;;4935205;28;20460;-72
2021/09/15 12:07:55;;;;;;;7.22;5.50;;;25.10;64.90;;;;;;4949463;28;20052;-72
2021/09/15 12:10:21;;;;;;;10.05;6.50;;;25.00;65.80;;;;;;4936658;28;20102;-73
2021/09/15 12:12:48;;;;;;;10.50;6.38;;;25.00;65.60;;;;;;4932063;29;20214;-72
2021/09/15 12:15:14;;;;;;;14.00;6.65;;;25.00;65.90;;;;;;4935868;28;20035;-73
2021/09/15 12:17:40;;;;;;;7.97;5.25;;;24.90;67.30;;;;;;4933985;28;20047;-70
2021/09/15 12:20:07;;;;;;;6.65;5.30;;;24.70;68.30;;;;;;4943116;28;20039;-73
2021/09/15 12:22:34;;;;;;;7.68;5.00;;;24.60;70.50;;;;;;4936200;28;20031;-73
2021/09/15 12:25:06;;;;;;;5.97;5.38;;;24.40;71.70;;;;;;4940630;28;20043;-73
2021/09/15 12:27:32;;;;;;;8.70;6.07;;;24.30;73.40;;;;;;4946495;28;20055;-73
2021/09/15 12:30:06;;;;;;;6.53;5.80;;;24.10;75.20;;;;;;4937693;28;20436;-73
2021/09/15 12:32:36;;;;;;;9.93;6.57;;;23.90;76.50;;;;;;4935411;28;20036;-73
2021/09/15 12:35:04;;;;;;;7.53;6.70;;;23.70;78.90;;;;;;4930817;28;20043;-73
2021/09/15 12:37:40;;;;;;;8.45;6.05;;;23.40;80.00;;;;;;4931219;28;20174;-73
2021/09/15 12:40:16;;;;;;;9.98;6.90;;;23.10;81.80;;;;;;4942213;28;20292;-72
2021/09/15 12:42:42;;;;;;;11.65;7.30;;;22.90;83.30;;;;;;4934092;29;20043;-73
2021/09/15 12:45:11;;;;;;;8.88;7.00;;;22.80;84.50;;;;;;4943980;28;20042;-72
2021/09/15 12:47:45;;;;;;;10.45;7.07;;;22.60;85.30;;;;;;4937582;28;20042;-73
2021/09/15 12:50:17;;;;;;;9.90;7.50;;;22.50;86.50;;;;;;4937700;28;20031;-73
2021/09/15 12:52:44;;;;;;;10.00;7.07;;;22.30;87.20;;;;;;4942772;28;20392;-72
2021/09/15 12:55:30;;;;;;;9.43;7.53;;;22.30;88.10;;;;;;4941882;28;20490;-73
2021/09/15 12:58:01;;;;;;;7.47;6.78;;;22.20;88.70;;;;;;4938162;28;20052;-73
2021/09/15 13:00:33;;;;;;;12.00;7.32;;;22.10;89.20;;;;;;4935645;29;20113;-73
2021/09/15 13:03:05;;;;;;;9.85;7.55;;;22.10;89.80;;;;;;4929537;29;20086;-73